Time;durP1;ratioP1;P1;durP2;ratioP2;P2;SDS_P1;SDS_P2;PMS_P1;PMS_P2;Temp;Humidity;BMP_temperature;BMP_pressure;BME280_temperature;BME280_humidity;BME280_pressure;Samples;Min_cycle;Max_cycle;Signal;HPM_P1;HPM_P2
2021/05/15 00:01:28;;;;;;;3.00;1.83;;;;;;;13.52;67.34;94537.03;5097871;28;20448;-91
2021/05/15 00:03:56;;;;;;;4.40;1.53;;;;;;;13.51;67.78;94539.81;5097503;28;20498;-90
2021/05/15 00:06:22;;;;;;;6.17;1.83;;;;;;;13.44;68.08;94531.72;5097695;28;20495;-88
2021/05/15 00:08:48;;;;;;;2.07;1.97;;;;;;;13.46;68.93;94531.56;5078268;28;20492;-90
2021/05/15 00:11:15;;;;;;;2.43;1.50;;;;;;;13.36;68.80;94523.78;5097325;28;20443;-88
2021/05/15 00:13:42;;;;;;;3.87;2.00;;;;;;;13.20;69.62;94526.31;5097200;28;20455;-88
2021/05/15 00:16:08;;;;;;;3.20;2.07;;;;;;;13.21;70.18;94527.94;5097454;28;20769;-90
2021/05/15 00:18:34;;;;;;;3.07;1.80;;;;;;;13.26;68.95;94520.41;5078363;28;20447;-90
2021/05/15 00:21:01;;;;;;;2.80;1.70;;;;;;;13.23;69.03;94520.72;5097221;28;20446;-89
2021/05/15 00:23:27;;;;;;;1.83;1.60;;;;;;;13.22;69.13;94519.06;5096823;28;20444;-89
2021/05/15 00:25:54;;;;;;;2.63;1.93;;;;;;;13.15;69.71;94520.66;5096144;28;20441;-90
2021/05/15 00:28:20;;;;;;;3.57;2.60;;;;;;;13.02;70.94;94529.78;5096853;28;20476;-90
2021/05/15 00:30:47;;;;;;;2.33;2.13;;;;;;;12.94;70.76;94529.72;5095576;28;20955;-87
2021/05/15 00:33:14;;;;;;;2.13;1.93;;;;;;;12.94;71.72;94526.25;5096954;28;20450;-89
2021/05/15 00:35:40;;;;;;;2.10;1.97;;;;;;;12.79;72.18;94522.53;5096789;28;20505;-91
2021/05/15 00:38:06;;;;;;;2.37;2.17;;;;;;;12.80;72.50;94524.19;5096617;28;20448;-90
2021/05/15 00:40:32;;;;;;;4.37;2.77;;;;;;;12.85;72.68;94530.63;5060870;28;20443;-91
2021/05/15 00:42:59;;;;;;;2.30;2.10;;;;;;;12.93;72.44;94532.50;5096719;28;20444;-87
2021/05/15 00:45:25;;;;;;;3.67;2.20;;;;;;;12.93;72.28;94528.06;5096019;28;20806;-89
2021/05/15 00:47:52;;;;;;;2.23;1.80;;;;;;;12.82;72.52;94533.56;5095640;28;20469;-90
2021/05/15 00:50:18;;;;;;;2.20;2.10;;;;;;;12.85;72.61;94535.06;5095995;28;20439;-90
2021/05/15 00:52:47;;;;;;;2.00;1.90;;;;;;;12.81;72.93;94536.38;5095567;28;20443;-85
2021/05/15 00:55:15;;;;;;;4.43;2.20;;;;;;;12.77;73.31;94530.56;5095738;28;20531;-88
2021/05/15 00:57:42;;;;;;;1.80;1.70;;;;;;;12.90;73.23;94523.09;5095888;28;20453;-89
2021/05/15 01:00:11;;;;;;;4.87;2.57;;;;;;;12.95;72.49;94522.63;5095719;28;20501;-91
2021/05/15 01:02:38;;;;;;;4.90;2.57;;;;;;;12.95;71.83;94517.38;5095663;28;20489;-88
2021/05/15 01:05:07;;;;;;;2.80;2.10;;;;;;;12.95;71.74;94520.81;5095877;28;20451;-90
2021/05/15 01:07:34;;;;;;;2.20;2.00;;;;;;;13.05;71.50;94514.66;5095435;28;20444;-87
2021/05/15 01:10:02;;;;;;;3.10;2.30;;;;;;;13.13;71.79;94514.72;5095521;28;20488;-90
2021/05/15 01:12:28;;;;;;;2.70;2.10;;;;;;;13.18;71.18;94518.56;5096083;28;20443;-89
2021/05/15 01:14:54;;;;;;;3.60;2.30;;;;;;;13.24;71.24;94517.09;5060543;28;20475;-92
2021/05/15 01:17:21;;;;;;;2.33;2.03;;;;;;;13.22;71.04;94508.53;5096032;28;20453;-90
2021/05/15 01:19:47;;;;;;;2.70;2.20;;;;;;;13.27;70.95;94512.34;5095626;28;20937;-89
2021/05/15 01:22:16;;;;;;;2.43;2.07;;;;;;;13.29;71.01;94513.00;5096742;28;20447;-91
2021/05/15 01:24:44;;;;;;;3.90;2.10;;;;;;;13.25;71.46;94518.75;5096327;28;20450;-91
2021/05/15 01:27:14;;;;;;;2.50;2.30;;;;;;;13.26;71.02;94517.78;5096407;28;20455;-85
2021/05/15 01:29:41;;;;;;;2.83;2.63;;;;;;;13.20;71.28;94513.97;5095904;28;20976;-90
2021/05/15 01:32:09;;;;;;;2.20;2.03;;;;;;;13.14;71.27;94506.66;5095566;28;20934;-87
2021/05/15 01:34:35;;;;;;;2.73;2.10;;;;;;;13.09;72.36;94513.38;5095397;28;20809;-92
2021/05/15 01:37:01;;;;;;;2.67;2.47;;;;;;;13.04;71.80;94505.94;5076493;28;20952;-86
2021/05/15 01:39:30;;;;;;;3.40;2.30;;;;;;;13.07;71.19;94505.63;5095712;28;20462;-90
2021/05/15 01:41:57;;;;;;;2.10;1.90;;;;;;;13.06;71.22;94511.03;5094715;28;20449;-89
2021/05/15 01:44:23;;;;;;;3.17;2.17;;;;;;;13.12;71.57;94513.06;5095293;28;20448;-87
2021/05/15 01:46:49;;;;;;;3.47;2.77;;;;;;;13.14;71.18;94506.66;5096145;28;20804;-89
2021/05/15 01:49:15;;;;;;;3.10;2.40;;;;;;;13.20;71.62;94510.50;5094654;28;20487;-87
2021/05/15 01:51:42;;;;;;;2.50;2.30;;;;;;;13.24;72.08;94517.09;5094834;28;20513;-89
2021/05/15 01:54:08;;;;;;;3.60;2.57;;;;;;;13.24;72.35;94525.00;5094930;28;20438;-88
2021/05/15 01:56:37;;;;;;;3.10;2.30;;;;;;;13.23;72.12;94518.09;5094727;28;20497;-87
2021/05/15 01:59:06;;;;;;;3.30;2.43;;;;;;;13.21;72.31;94512.97;5094521;28;20453;-89
2021/05/15 02:01:32;;;;;;;5.43;2.47;;;;;;;13.15;71.47;94513.56;5095034;28;20947;-90
2021/05/15 02:03:58;;;;;;;2.93;2.47;;;;;;;13.13;71.53;94510.25;5059048;28;21066;-91
2021/05/15 02:06:25;;;;;;;2.17;1.97;;;;;;;13.11;71.80;94521.94;5094373;28;20914;-88
2021/05/15 02:08:51;;;;;;;2.70;1.80;;;;;;;13.13;72.38;94519.97;5094835;28;20842;-89
2021/05/15 02:11:18;;;;;;;3.60;2.63;;;;;;;13.10;70.97;94520.28;5094601;28;20452;-90
2021/05/15 02:13:46;;;;;;;2.20;1.63;;;;;;;13.07;71.54;94520.59;5094575;28;21004;-87
2021/05/15 02:16:13;;;;;;;3.00;1.80;;;;;;;13.03;70.82;94510.38;5095272;28;20453;-88
2021/05/15 02:18:39;;;;;;;2.17;1.97;;;;;;;12.89;71.84;94513.53;5094569;28;20814;-90
2021/05/15 02:21:06;;;;;;;2.23;2.03;;;;;;;12.79;72.73;94520.72;5094268;28;20437;-90
2021/05/15 02:23:33;;;;;;;3.30;2.43;;;;;;;12.80;72.25;94518.91;5094836;28;20500;-91
2021/05/15 02:25:59;;;;;;;2.63;2.03;;;;;;;12.82;72.37;94528.31;5094829;28;20467;-85
2021/05/15 02:28:26;;;;;;;2.20;2.00;;;;;;;12.81;72.39;94521.41;5094318;28;20532;-87
2021/05/15 02:30:53;;;;;;;5.00;2.17;;;;;;;12.74;72.39;94515.09;5094272;28;20450;-92
2021/05/15 02:33:20;;;;;;;2.53;2.20;;;;;;;12.68;73.01;94513.03;5094701;28;20443;-89
2021/05/15 02:35:47;;;;;;;3.37;2.50;;;;;;;12.70;72.56;94513.72;5094716;28;20450;-91
2021/05/15 02:38:14;;;;;;;2.83;1.97;;;;;;;12.76;72.86;94502.59;5094812;28;20455;-91
2021/05/15 02:40:42;;;;;;;2.67;2.47;;;;;;;12.76;72.99;94507.88;5095595;28;20440;-89
2021/05/15 02:43:08;;;;;;;2.60;1.90;;;;;;;12.81;73.00;94502.97;5096255;28;20452;-91
2021/05/15 02:45:35;;;;;;;5.70;2.27;;;;;;;12.88;73.01;94506.63;5094708;28;20455;-88
2021/05/15 02:48:03;;;;;;;5.20;2.17;;;;;;;12.97;72.36;94510.13;5094493;28;20470;-91
2021/05/15 02:50:30;;;;;;;2.63;2.40;;;;;;;13.05;71.95;94512.84;5095279;28;20453;-91
2021/05/15 02:52:56;;;;;;;3.90;2.20;;;;;;;12.90;73.07;94503.84;5094790;28;20443;-89
2021/05/15 02:55:24;;;;;;;5.93;3.27;;;;;;;12.61;73.37;94515.47;5063219;28;20447;-90
2021/05/15 02:57:53;;;;;;;5.40;3.40;;;;;;;12.04;75.58;94514.91;5099001;28;20444;-90
2021/05/15 03:00:21;;;;;;;6.73;3.50;;;;;;;11.82;78.35;94512.69;5098417;28;20486;-90
2021/05/15 03:02:47;;;;;;;4.40;3.37;;;;;;;11.95;77.55;94517.59;5097880;28;20483;-88
2021/05/15 03:05:16;;;;;;;5.90;3.40;;;;;;;11.92;77.25;94521.38;5098246;28;20440;-90
2021/05/15 03:07:43;;;;;;;4.40;3.03;;;;;;;11.93;76.63;94519.56;5098030;28;20447;-89
2021/05/15 03:10:11;;;;;;;9.57;4.83;;;;;;;11.97;76.40;94519.13;5098370;28;20487;-89
2021/05/15 03:12:37;;;;;;;5.70;3.27;;;;;;;11.97;76.51;94523.53;5098095;28;20497;-89
2021/05/15 03:15:06;;;;;;;4.83;3.20;;;;;;;11.91;76.08;94521.50;5098086;28;20444;-88
2021/05/15 03:17:32;;;;;;;7.97;4.17;;;;;;;11.78;76.62;94529.72;5097579;28;20448;-89
2021/05/15 03:19:59;;;;;;;3.47;3.27;;;;;;;11.86;76.75;94526.38;5097862;28;20447;-88
2021/05/15 03:22:26;;;;;;;4.23;3.00;;;;;;;11.91;75.95;94524.13;5098569;28;20447;-87
2021/05/15 03:24:52;;;;;;;5.27;3.37;;;;;;;12.01;75.46;94524.91;5097881;28;20447;-89
2021/05/15 03:27:19;;;;;;;5.93;3.80;;;;;;;12.06;75.28;94520.03;5098323;28;20474;-82
2021/05/15 03:29:45;;;;;;;7.10;3.20;;;;;;;12.18;75.51;94532.00;5097559;28;20483;-87
2021/05/15 03:32:11;;;;;;;4.80;3.03;;;;;;;12.21;75.74;94531.69;5098652;28;20461;-87
2021/05/15 03:34:38;;;;;;;4.33;3.93;;;;;;;12.34;75.47;94532.16;5098956;28;20496;-85
2021/05/15 03:37:04;;;;;;;3.40;3.20;;;;;;;12.47;76.11;94525.72;5097966;28;20455;-86
2021/05/15 03:39:32;;;;;;;7.07;3.97;;;;;;;12.61;75.82;94523.34;5098251;28;20472;-89
2021/05/15 03:41:58;;;;;;;5.07;3.80;;;;;;;12.83;76.43;94524.69;5101199;28;20205;-85
2021/05/15 03:44:24;;;;;;;4.43;3.93;;;;;;;12.98;77.16;94533.69;5103104;28;20451;-89
2021/05/15 03:46:51;;;;;;;3.40;3.10;;;;;;;13.05;78.34;94533.09;5104959;28;20440;-90
2021/05/15 03:49:17;;;;;;;9.93;3.33;;;;;;;13.15;75.41;94533.81;5105676;28;20432;-89
2021/05/15 03:51:43;;;;;;;7.10;3.30;;;;;;;13.28;73.95;94539.53;5068284;28;20995;-89
2021/05/15 03:54:10;;;;;;;3.67;2.80;;;;;;;13.41;74.15;94537.31;5105270;28;20470;-89
2021/05/15 03:56:37;;;;;;;5.53;2.93;;;;;;;13.53;75.56;94533.41;5104408;28;20449;-89
2021/05/15 03:59:04;;;;;;;3.73;2.90;;;;;;;13.68;74.13;94538.94;5105144;28;20895;-90
2021/05/15 04:01:30;;;;;;;3.30;2.70;;;;;;;13.74;73.88;94535.66;5105363;28;20443;-90
2021/05/15 04:03:57;;;;;;;3.10;2.53;;;;;;;13.80;75.63;94540.31;5104664;28;20483;-90
2021/05/15 04:06:23;;;;;;;5.93;3.07;;;;;;;13.85;75.28;94547.75;5103294;28;20861;-87
2021/05/15 04:08:49;;;;;;;6.00;3.20;;;;;;;13.75;75.27;94533.84;5085935;28;20489;-89
2021/05/15 04:11:15;;;;;;;2.30;2.10;;;;;;;13.62;71.90;94543.03;5103018;28;20461;-90
2021/05/15 04:13:47;;;;;;;2.60;2.40;;;;;;;13.60;75.98;94542.38;5104934;28;20926;-89
2021/05/15 04:16:17;;;;;;;2.43;2.23;;;;;;;13.55;75.51;94538.53;5117464;28;20418;-86
2021/05/15 04:18:44;;;;;;;2.73;2.33;;;;;;;13.60;73.54;94542.38;5117531;28;21030;-87
2021/05/15 04:21:10;;;;;;;2.70;2.50;;;;;;;13.64;75.79;94537.59;5118313;28;20454;-86
2021/05/15 04:23:37;;;;;;;2.83;2.63;;;;;;;13.62;73.67;94540.41;5118083;28;20432;-88
2021/05/15 04:26:04;;;;;;;6.50;2.90;;;;;;;13.73;73.87;94535.81;5116246;28;20451;-87
2021/05/15 04:28:31;;;;;;;2.57;2.37;;;;;;;13.87;74.42;94535.22;5117120;28;20201;-90
2021/05/15 04:30:59;;;;;;;7.30;2.40;;;;;;;13.93;71.63;94527.53;5115874;28;20475;-87
2021/05/15 04:33:25;;;;;;;9.03;2.67;;;;;;;13.97;73.03;94530.66;5113829;28;20462;-90
2021/05/15 04:35:52;;;;;;;3.67;1.90;;;;;;;13.85;72.44;94531.91;5090138;28;20449;-90
2021/05/15 04:38:19;;;;;;;8.90;2.73;;;;;;;13.88;71.75;94527.19;5101844;28;20454;-88
2021/05/15 04:40:46;;;;;;;2.40;2.20;;;;;;;13.93;71.99;94524.06;5098297;28;20437;-91
2021/05/15 04:43:14;;;;;;;3.27;2.97;;;;;;;14.01;71.53;94518.78;5096163;28;20424;-90
2021/05/15 04:45:40;;;;;;;3.30;3.10;;;;;;;14.07;71.13;94515.50;5098376;28;20452;-90
2021/05/15 04:48:08;;;;;;;2.10;2.00;;;;;;;13.99;69.69;94512.03;5096990;28;20441;-90
2021/05/15 04:50:35;;;;;;;2.20;2.00;;;;;;;14.06;70.60;94510.41;5096820;28;20431;-90
2021/05/15 04:53:02;;;;;;;3.83;2.47;;;;;;;14.14;70.10;94510.41;5097367;28;20444;-90
2021/05/15 04:55:28;;;;;;;5.00;2.47;;;;;;;14.27;77.19;94510.78;5096679;28;20451;-89
2021/05/15 04:57:57;;;;;;;2.67;2.43;;;;;;;14.38;74.21;94499.09;5095166;28;20436;-89
2021/05/15 05:00:24;;;;;;;7.50;2.90;;;;;;;14.52;70.54;94496.69;5096344;28;20571;-90
2021/05/15 05:02:51;;;;;;;5.00;4.60;;;;;;;14.47;68.52;94495.53;5096042;28;20476;-90
2021/05/15 05:05:18;;;;;;;2.93;2.70;;;;;;;14.52;69.98;94490.56;5096047;28;20454;-90
2021/05/15 05:07:45;;;;;;;8.03;5.27;;;;;;;14.59;70.22;94486.28;5096599;28;20443;-89
2021/05/15 05:10:12;;;;;;;2.47;2.27;;;;;;;14.71;69.89;94486.75;5096030;28;20533;-89
2021/05/15 05:12:38;;;;;;;7.47;3.47;;;;;;;14.87;70.20;94484.97;5095656;28;20522;-89
2021/05/15 05:15:06;;;;;;;5.73;2.77;;;;;;;15.18;68.15;94474.50;5096357;28;20937;-89
2021/05/15 05:17:32;;;;;;;4.17;3.20;;;;;;;15.43;66.91;94472.66;5097490;28;20448;-90
2021/05/15 05:19:58;;;;;;;5.50;3.73;;;;;;;15.76;66.42;94475.19;5078105;28;20502;-90
2021/05/15 05:22:26;;;;;;;5.43;2.67;;;;;;;16.07;64.47;94464.63;5097929;28;20444;-87
2021/05/15 05:24:52;;;;;;;4.33;3.43;;;;;;;16.37;63.47;94463.78;5098706;28;20465;-88
2021/05/15 05:27:20;;;;;;;3.50;2.57;;;;;;;16.54;63.01;94467.16;5097979;28;20442;-88
2021/05/15 05:29:47;;;;;;;5.00;3.07;;;;;;;16.69;62.27;94456.63;5099965;28;20915;-89
2021/05/15 05:32:13;;;;;;;3.00;2.70;;;;;;;16.87;60.08;94453.69;5096307;28;20442;-87
2021/05/15 05:34:40;;;;;;;3.30;2.67;;;;;;;17.06;59.36;94455.84;5096712;28;20461;-90
2021/05/15 05:37:07;;;;;;;2.90;2.70;;;;;;;17.52;59.57;94445.06;5076748;28;20457;-90
2021/05/15 05:39:36;;;;;;;3.40;2.33;;;;;;;17.96;58.90;94450.38;5095792;28;20489;-90
2021/05/15 05:42:03;;;;;;;5.40;2.40;;;;;;;18.17;56.75;94454.88;5095661;28;20497;-88
2021/05/15 05:44:29;;;;;;;3.43;2.60;;;;;;;18.49;55.77;94453.59;5095130;28;20435;-87
2021/05/15 05:46:55;;;;;;;3.20;2.33;;;;;;;18.47;54.02;94455.63;5094655;28;20451;-91
2021/05/15 05:49:21;;;;;;;3.30;2.90;;;;;;;18.52;55.12;94455.91;5076262;28;20448;-89
2021/05/15 05:51:48;;;;;;;6.03;3.07;;;;;;;18.82;55.88;94457.44;5096166;28;20440;-89
2021/05/15 05:54:14;;;;;;;5.13;2.60;;;;;;;19.17;54.03;94453.03;5096181;28;20449;-90
2021/05/15 05:56:41;;;;;;;2.90;2.70;;;;;;;19.27;52.00;94451.84;5095216;28;20447;-89
2021/05/15 05:59:08;;;;;;;5.50;2.80;;;;;;;19.56;52.06;94457.00;5095958;28;20482;-87
2021/05/15 06:01:35;;;;;;;5.07;3.03;;;;;;;19.64;50.86;94454.16;5095606;28;20446;-88
2021/05/15 06:04:02;;;;;;;3.40;3.10;;;;;;;19.80;50.27;94453.84;5095346;28;20868;-86
2021/05/15 06:06:28;;;;;;;5.57;2.60;;;;;;;19.54;51.06;94453.72;5094805;28;20540;-91
2021/05/15 06:08:56;;;;;;;2.90;2.60;;;;;;;19.28;51.66;94453.50;5076574;28;20464;-88
2021/05/15 06:11:23;;;;;;;4.90;4.50;;;;;;;19.82;51.37;94450.19;5095147;28;20460;-87
2021/05/15 06:13:50;;;;;;;7.53;2.83;;;;;;;19.43;50.14;94455.06;5059639;28;20446;-89
2021/05/15 06:16:17;;;;;;;10.00;2.90;;;;;;;19.47;49.98;94458.97;5059118;28;21110;-91
2021/05/15 06:18:43;;;;;;;2.40;2.20;;;;;;;18.36;52.70;94454.28;5094754;28;20544;-89
2021/05/15 06:21:09;;;;;;;4.40;2.30;;;;;;;18.20;53.71;94455.34;5094570;28;20438;-88
2021/05/15 06:23:36;;;;;;;2.47;2.10;;;;;;;18.19;52.79;94439.59;5094367;28;20441;-87
2021/05/15 06:26:07;;;;;;;4.87;2.73;;;;;;;18.46;53.60;94446.00;5093966;28;20447;-86
2021/05/15 06:28:34;;;;;;;4.70;2.80;;;;;;;19.11;51.72;94443.16;5093794;28;20454;-85
2021/05/15 06:31:01;;;;;;;3.10;2.33;;;;;;;19.51;49.42;94435.44;5095184;28;20445;-88
2021/05/15 06:33:28;;;;;;;2.70;2.50;;;;;;;19.92;49.65;94430.13;5094984;28;20441;-86
2021/05/15 06:35:56;;;;;;;38.80;21.43;;;;;;;20.54;48.65;94425.66;5094233;28;20450;-89
2021/05/15 06:38:23;;;;;;;15.73;9.00;;;;;;;21.14;47.27;94414.00;5094195;28;20440;-88
2021/05/15 06:40:49;;;;;;;3.03;2.73;;;;;;;21.78;45.96;94409.81;5094671;28;20967;-85
2021/05/15 06:43:15;;;;;;;2.90;2.13;;;;;;;22.17;44.66;94415.00;5094798;28;20445;-87
2021/05/15 06:45:41;;;;;;;2.60;2.30;;;;;;;22.32;43.04;94413.94;5095064;28;20457;-89
2021/05/15 06:48:09;;;;;;;4.30;2.17;;;;;;;22.10;43.08;94418.75;5095356;28;20449;-89
2021/05/15 06:50:35;;;;;;;2.37;2.10;;;;;;;22.02;44.02;94408.28;5075192;28;20449;-89
2021/05/15 06:53:02;;;;;;;3.57;2.07;;;;;;;22.05;42.86;94414.06;5094186;28;20450;-89
2021/05/15 06:55:28;;;;;;;2.43;2.23;;;;;;;22.00;43.61;94410.34;5094156;28;20446;-87
2021/05/15 06:57:55;;;;;;;2.40;1.70;;;;;;;21.81;44.28;94409.38;5093644;28;20452;-86
2021/05/15 07:00:23;;;;;;;2.07;1.90;;;;;;;21.52;44.05;94411.50;5093351;28;20510;-86
2021/05/15 07:02:50;;;;;;;2.07;1.97;;;;;;;21.27;45.47;94410.53;5093579;28;20480;-89
2021/05/15 07:05:17;;;;;;;3.60;2.33;;;;;;;20.93;45.51;94400.88;5093563;28;20454;-89
2021/05/15 07:07:43;;;;;;;3.77;1.83;;;;;;;20.62;46.97;94410.28;5093294;28;20476;-87
2021/05/15 07:10:11;;;;;;;2.43;2.03;;;;;;;20.49;47.55;94401.44;5093102;28;20811;-84
2021/05/15 07:12:37;;;;;;;2.27;2.00;;;;;;;20.59;47.40;94402.72;5075039;28;20455;-89
2021/05/15 07:15:05;;;;;;;5.90;2.20;;;;;;;20.69;47.32;94394.31;5093785;28;20454;-87
2021/05/15 07:17:31;;;;;;;2.23;2.03;;;;;;;20.97;46.63;94402.09;5041014;28;20435;-86
2021/05/15 07:19:58;;;;;;;1.70;1.60;;;;;;;21.34;45.83;94404.16;5094771;28;20480;-87
2021/05/15 07:22:26;;;;;;;2.93;1.80;;;;;;;21.73;44.48;94399.75;5092844;28;20438;-84
2021/05/15 07:24:52;;;;;;;7.50;1.90;;;;;;;21.84;43.60;94393.75;5094076;28;20866;-87
2021/05/15 07:27:20;;;;;;;5.23;2.43;;;;;;;22.01;43.66;94393.28;5093652;28;20449;-86
2021/05/15 07:29:48;;;;;;;2.60;2.00;;;;;;;;;;5074439;28;20442;-87
2021/05/15 07:32:15;;;;;;;18.23;2.53;;;;;;;22.72;42.38;94382.41;5092621;28;20461;-87
2021/05/15 07:34:41;;;;;;;2.27;1.70;;;;;;;23.12;41.72;94385.59;5093141;28;20446;-87
2021/05/15 07:37:09;;;;;;;2.13;1.80;;;;;;;23.35;41.73;94372.41;5093028;28;20925;-89
2021/05/15 07:39:36;;;;;;;3.40;2.30;;;;;;;23.53;41.16;94373.47;5093169;28;20580;-88
2021/05/15 07:42:03;;;;;;;2.20;2.00;;;;;;;23.49;41.02;94376.59;5096444;28;20453;-88
2021/05/15 07:44:29;;;;;;;1.93;1.73;;;;;;;23.18;40.92;94363.31;5096728;28;20451;-86
2021/05/15 08:05:13;;;;;;;7.70;2.73;;;;;;;23.63;42.82;94360.41;5131315;27;21067;-80
2021/05/15 08:07:40;;;;;;;3.97;2.50;;;;;;;23.48;42.73;94355.41;5110847;28;20445;-80
2021/05/15 08:10:08;;;;;;;4.97;2.47;;;;;;;23.55;43.34;94360.69;5110643;28;20458;-80
2021/05/15 08:12:35;;;;;;;4.43;2.57;;;;;;;23.62;42.97;94366.81;5110704;28;20450;-80
2021/05/15 08:15:02;;;;;;;3.73;2.20;;;;;;;23.56;42.57;94354.31;5110517;28;20511;-80
2021/05/15 08:17:28;;;;;;;3.20;2.53;;;;;;;23.67;43.90;94361.59;5110346;28;20462;-80
2021/05/15 08:19:55;;;;;;;4.27;2.60;;;;;;;23.85;41.72;94355.41;5110652;28;20444;-80
2021/05/15 08:22:22;;;;;;;2.17;1.77;;;;;;;23.92;40.88;94343.56;5074601;28;20497;-80
2021/05/15 08:24:48;;;;;;;2.20;2.00;;;;;;;23.55;41.85;94333.91;5110435;28;20507;-80
2021/05/15 08:27:15;;;;;;;3.00;2.20;;;;;;;23.77;42.97;94329.75;5110265;28;20453;-80
2021/05/15 08:29:41;;;;;;;3.47;2.30;;;;;;;23.64;43.37;94319.19;5110279;28;20453;-80
2021/05/15 08:32:07;;;;;;;15.03;2.47;;;;;;;23.60;43.77;94313.47;5110368;28;20439;-79
2021/05/15 08:34:34;;;;;;;3.00;1.93;;;;;;;23.55;43.71;94315.16;5110126;28;20535;-80
2021/05/15 08:37:00;;;;;;;7.10;1.80;;;;;;;23.49;43.36;94312.31;5110042;28;20438;-79
2021/05/15 08:39:27;;;;;;;5.17;2.20;;;;;;;23.25;43.24;94313.22;5109944;28;20452;-79
2021/05/15 08:41:53;;;;;;;4.63;1.90;;;;;;;23.14;43.29;94311.28;5109828;28;20449;-79
2021/05/15 08:44:23;;;;;;;5.77;2.10;;;;;;;23.05;43.20;94309.91;5110203;28;20447;-80
2021/05/15 08:46:52;;;;;;;2.10;1.90;;;;;;;23.03;42.47;94314.66;5110031;28;20445;-79
2021/05/15 08:49:22;;;;;;;7.60;2.73;;;;;;;22.99;41.90;94310.78;5109808;28;20563;-80
2021/05/15 08:51:49;;;;;;;5.70;2.27;;;;;;;23.06;43.16;94311.53;5109644;28;20437;-79
2021/05/15 08:54:16;;;;;;;8.63;2.20;;;;;;;23.08;41.82;94304.91;5074187;28;20485;-80
2021/05/15 08:56:44;;;;;;;6.30;2.27;;;;;;;22.93;43.78;94303.66;5109850;28;20856;-79
2021/05/15 08:59:10;;;;;;;2.23;2.13;;;;;;;22.80;41.90;94313.38;5109635;28;20885;-80
2021/05/15 09:01:37;;;;;;;3.10;1.50;;;;;;;23.05;43.57;94301.88;5109708;28;20499;-80
2021/05/15 09:04:04;;;;;;;4.70;2.63;;;;;;;23.08;42.29;94298.75;5119683;28;20481;-79
2021/05/15 09:06:30;;;;;;;2.03;1.60;;;;;;;22.86;41.86;94304.53;5064121;28;20436;-80
2021/05/15 09:08:56;;;;;;;4.90;1.80;;;;;;;22.92;42.44;94302.00;5116762;28;20459;-79
2021/05/15 09:11:23;;;;;;;2.57;2.10;;;;;;;22.52;42.47;94294.28;5116779;28;20437;-80
2021/05/15 09:13:52;;;;;;;2.37;2.20;;;;;;;22.60;43.19;94291.34;5116246;28;20481;-80
2021/05/15 09:16:18;;;;;;;2.27;2.00;;;;;;;22.67;42.59;94286.75;5116891;28;20484;-80
2021/05/15 09:18:45;;;;;;;3.20;2.13;;;;;;;22.57;42.75;94289.13;5116224;28;20851;-79
2021/05/15 09:21:14;;;;;;;5.00;2.00;;;;;;;22.65;41.94;94280.81;5116317;28;20426;-80
2021/05/15 09:23:44;;;;;;;3.30;2.03;;;;;;;22.88;43.68;94290.13;5116123;28;20453;-79
2021/05/15 09:26:13;;;;;;;3.60;2.53;;;;;;;22.76;41.83;94290.78;5117370;28;20834;-80
2021/05/15 09:28:44;;;;;;;1.77;1.50;;;;;;;22.75;42.85;94286.47;5116176;28;20483;-80
2021/05/15 09:31:19;;;;;;;3.10;2.03;;;;;;;22.76;42.88;94273.91;5116478;28;20921;-80
2021/05/15 09:33:48;;;;;;;4.67;1.90;;;;;;;22.91;42.84;94278.97;5116526;28;20467;-79
2021/05/15 09:36:17;;;;;;;2.90;2.00;;;;;;;22.76;41.36;94281.94;5116593;28;20923;-79
2021/05/15 09:38:44;;;;;;;2.20;2.00;;;;;;;22.76;40.86;94284.63;5115964;28;20513;-79
2021/05/15 09:41:10;;;;;;;2.53;2.33;;;;;;;22.73;41.30;94269.84;5064104;28;20493;-79
2021/05/15 09:43:37;;;;;;;1.90;1.70;;;;;;;22.74;40.43;94260.78;5115795;28;20434;-80
2021/05/15 09:46:04;;;;;;;3.67;2.03;;;;;;;22.60;41.45;94269.97;5116244;28;20486;-79
2021/05/15 09:48:37;;;;;;;2.13;1.57;;;;;;;22.42;41.21;94265.38;5115766;28;20451;-80
2021/05/15 09:51:15;;;;;;;2.60;1.50;;;;;;;22.45;41.44;94264.09;5116040;28;20445;-80
2021/05/15 09:54:28;;;;;;;2.00;1.70;;;;;;;22.38;41.26;94266.03;5116576;28;20470;-83
2021/05/15 09:56:59;;;;;;;2.70;1.90;;;;;;;22.31;41.18;94266.09;5115584;28;20529;-81
2021/05/15 09:59:27;;;;;;;2.57;1.63;;;;;;;22.42;42.25;94262.69;5115447;28;20440;-79
2021/05/15 10:01:56;;;;;;;3.40;1.87;;;;;;;22.39;41.07;94259.66;5080135;28;20487;-80
2021/05/15 10:04:25;;;;;;;2.70;1.53;;;;;;;22.54;41.45;94249.41;5115888;28;20514;-80
2021/05/15 10:06:52;;;;;;;3.80;1.70;;;;;;;22.55;40.67;94261.75;5080221;28;20942;-80
2021/05/15 10:09:29;;;;;;;1.93;1.73;;;;;;;22.74;42.26;94271.47;5115579;28;20444;-81
2021/05/15 10:11:55;;;;;;;7.57;2.67;;;;;;;22.76;42.98;94264.03;5115649;28;20489;-81
2021/05/15 10:14:22;;;;;;;4.73;3.30;;;;;;;22.51;44.23;94272.06;5115517;28;20877;-81
2021/05/15 10:16:48;;;;;;;14.87;4.50;;;;;;;22.33;45.33;94271.22;5114895;28;20435;-81
2021/05/15 10:19:16;;;;;;;5.57;3.37;;;;;;;22.14;45.79;94276.47;5115105;28;20441;-79
2021/05/15 10:21:43;;;;;;;6.47;3.93;;;;;;;21.96;46.77;94276.34;5116266;28;20424;-78
2021/05/15 10:24:18;;;;;;;10.83;4.27;;;;;;;21.77;47.09;94263.94;5115750;28;20780;-79
2021/05/15 10:26:45;;;;;;;7.30;2.73;;;;;;;21.67;45.40;94263.56;5115398;28;20523;-81
2021/05/15 10:29:11;;;;;;;7.20;3.03;;;;;;;21.52;45.37;94262.00;5115217;28;20428;-80
2021/05/15 10:31:39;;;;;;;4.40;3.50;;;;;;;21.42;47.29;94268.84;5114826;28;20944;-80
2021/05/15 10:34:06;;;;;;;6.30;2.70;;;;;;;21.27;49.68;94271.75;5114966;28;20973;-82
2021/05/15 10:36:45;;;;;;;4.00;2.40;;;;;;;21.16;50.84;94272.38;5115681;28;20439;-80
2021/05/15 10:39:11;;;;;;;5.77;2.73;;;;;;;21.01;51.41;94253.94;5114841;28;20438;-81
2021/05/15 10:41:45;;;;;;;6.33;2.33;;;;;;;20.91;51.06;94265.06;5114798;28;20435;-80
2021/05/15 10:44:12;;;;;;;5.10;2.70;;;;;;;20.76;51.62;94267.13;5114706;28;20840;-81
2021/05/15 10:46:46;;;;;;;7.70;2.50;;;;;;;20.63;51.02;94269.81;5114592;28;20506;-80
2021/05/15 10:49:23;;;;;;;5.50;2.80;;;;;;;20.54;51.65;94263.06;5114485;28;20440;-81
2021/05/15 10:51:52;;;;;;;5.43;2.83;;;;;;;20.46;51.13;94269.41;5114512;28;20430;-81
2021/05/15 10:54:31;;;;;;;5.73;2.77;;;;;;;20.31;50.82;94266.09;5114864;28;20519;-81
2021/05/15 10:57:01;;;;;;;9.00;2.90;;;;;;;20.20;51.63;94262.19;5114479;28;20448;-81
2021/05/15 10:59:28;;;;;;;7.53;3.83;;;;;;;20.18;53.13;94268.75;5114487;28;20459;-81
2021/05/15 11:01:57;;;;;;;5.30;2.87;;;;;;;20.23;54.67;94266.28;5115229;28;20433;-81
2021/05/15 11:04:29;;;;;;;3.40;2.40;;;;;;;20.19;54.79;94275.72;5114697;28;20857;-83
2021/05/15 11:07:06;;;;;;;6.60;3.63;;;;;;;20.21;56.62;94273.66;5114614;28;20913;-81
2021/05/15 11:09:34;;;;;;;7.20;3.47;;;;;;;20.12;59.45;94275.72;5114295;28;20446;-81
2021/05/15 11:12:09;;;;;;;5.63;3.73;;;;;;;20.00;61.20;94272.84;5062881;28;20835;-81
2021/05/15 11:14:38;;;;;;;3.93;3.13;;;;;;;19.79;61.85;94276.50;5114603;28;20484;-82
2021/05/15 11:17:16;;;;;;;4.27;3.23;;;;;;;19.64;62.55;94280.31;5115276;28;20548;-81
2021/05/15 11:19:51;;;;;;;3.47;2.70;;;;;;;19.46;63.66;94281.69;5113960;28;20950;-81
2021/05/15 11:22:20;;;;;;;7.47;3.60;;;;;;;19.36;65.47;94275.06;5114304;28;20429;-81
2021/05/15 11:24:55;;;;;;;5.80;3.80;;;;;;;19.21;67.96;94277.91;5114150;28;20452;-81
2021/05/15 11:27:23;;;;;;;6.07;4.60;;;;;;;19.06;69.61;94264.72;5114055;28;20436;-81
2021/05/15 11:30:03;;;;;;;16.13;6.30;;;;;;;18.96;71.37;94269.59;5113868;28;20439;-81
2021/05/15 11:32:30;;;;;;;7.67;4.73;;;;;;;18.90;71.45;94270.38;5114277;28;20440;-81
2021/05/15 11:34:56;;;;;;;6.47;3.83;;;;;;;18.83;69.97;94267.69;5061661;28;20477;-81
2021/05/15 11:37:24;;;;;;;4.80;3.60;;;;;;;18.72;71.07;94262.88;5113776;28;20475;-81
2021/05/15 11:39:52;;;;;;;3.97;3.40;;;;;;;18.55;72.25;94262.34;5114160;28;20437;-81
2021/05/15 11:42:19;;;;;;;7.90;4.73;;;;;;;18.52;72.55;94262.75;5113673;28;20823;-81
2021/05/15 11:44:52;;;;;;;3.03;2.77;;;;;;;18.47;71.13;94266.97;5114028;28;20469;-81
2021/05/15 11:47:21;;;;;;;8.50;3.70;;;;;;;18.36;72.18;94268.34;5113716;28;20419;-80
2021/05/15 11:49:55;;;;;;;6.53;3.70;;;;;;;18.35;71.34;94277.31;5113730;28;20907;-81
2021/05/15 11:52:31;;;;;;;9.23;2.80;;;;;;;18.28;71.38;94281.78;5114050;28;20433;-81
2021/05/15 11:54:57;;;;;;;2.60;2.40;;;;;;;18.24;71.61;94291.13;5113633;28;20529;-81